sensor_id;sensor_type;location;lat;lon;timestamp;P1;durP1;ratioP1;P2;durP2;ratioP2
54167;SDS011;68429;50.958;3.592;2023-06-19T00:01:15;5.30;;;3.67;;
54167;SDS011;68429;50.958;3.592;2023-06-19T00:03:41;3.88;;;3.47;;
54167;SDS011;68429;50.958;3.592;2023-06-19T00:06:06;7.25;;;4.30;;
54167;SDS011;68429;50.958;3.592;2023-06-19T00:08:32;6.68;;;3.92;;
54167;SDS011;68429;50.958;3.592;2023-06-19T00:10:58;4.85;;;4.15;;
54167;SDS011;68429;50.958;3.592;2023-06-19T00:13:23;4.57;;;3.40;;
54167;SDS011;68429;50.958;3.592;2023-06-19T00:15:49;5.78;;;4.20;;
54167;SDS011;68429;50.958;3.592;2023-06-19T00:18:15;6.72;;;3.75;;
54167;SDS011;68429;50.958;3.592;2023-06-19T00:20:42;5.30;;;3.67;;
54167;SDS011;68429;50.958;3.592;2023-06-19T00:23:11;5.35;;;3.70;;
54167;SDS011;68429;50.958;3.592;2023-06-19T00:25:39;5.00;;;3.60;;
54167;SDS011;68429;50.958;3.592;2023-06-19T00:28:05;5.22;;;3.65;;
54167;SDS011;68429;50.958;3.592;2023-06-19T00:30:36;6.38;;;4.25;;
54167;SDS011;68429;50.958;3.592;2023-06-19T00:33:02;6.53;;;3.90;;
54167;SDS011;68429;50.958;3.592;2023-06-19T00:35:28;5.80;;;3.28;;
54167;SDS011;68429;50.958;3.592;2023-06-19T00:37:54;4.43;;;3.55;;
54167;SDS011;68429;50.958;3.592;2023-06-19T00:40:24;5.97;;;3.42;;
54167;SDS011;68429;50.958;3.592;2023-06-19T00:42:52;6.03;;;3.40;;
54167;SDS011;68429;50.958;3.592;2023-06-19T00:45:18;6.90;;;3.50;;
54167;SDS011;68429;50.958;3.592;2023-06-19T00:47:44;5.18;;;3.75;;
54167;SDS011;68429;50.958;3.592;2023-06-19T00:50:10;6.35;;;3.33;;
54167;SDS011;68429;50.958;3.592;2023-06-19T00:52:36;5.75;;;4.30;;
54167;SDS011;68429;50.958;3.592;2023-06-19T00:55:03;4.30;;;3.42;;
54167;SDS011;68429;50.958;3.592;2023-06-19T00:57:30;8.30;;;4.22;;
54167;SDS011;68429;50.958;3.592;2023-06-19T00:59:56;5.07;;;4.05;;
54167;SDS011;68429;50.958;3.592;2023-06-19T01:02:23;6.00;;;3.78;;
54167;SDS011;68429;50.958;3.592;2023-06-19T01:04:50;5.00;;;3.63;;
54167;SDS011;68429;50.958;3.592;2023-06-19T01:07:29;4.82;;;3.60;;
54167;SDS011;68429;50.958;3.592;2023-06-19T01:10:19;6.03;;;4.00;;
54167;SDS011;68429;50.958;3.592;2023-06-19T01:12:57;10.65;;;4.65;;
54167;SDS011;68429;50.958;3.592;2023-06-19T01:15:27;8.30;;;4.50;;
54167;SDS011;68429;50.958;3.592;2023-06-19T01:17:54;6.00;;;4.28;;
54167;SDS011;68429;50.958;3.592;2023-06-19T01:20:22;7.47;;;4.53;;
54167;SDS011;68429;50.958;3.592;2023-06-19T01:22:48;6.13;;;5.30;;
54167;SDS011;68429;50.958;3.592;2023-06-19T01:25:14;8.20;;;7.40;;
54167;SDS011;68429;50.958;3.592;2023-06-19T01:27:40;12.65;;;7.30;;
54167;SDS011;68429;50.958;3.592;2023-06-19T01:30:07;8.48;;;6.95;;
54167;SDS011;68429;50.958;3.592;2023-06-19T01:33:19;8.35;;;6.22;;
54167;SDS011;68429;50.958;3.592;2023-06-19T01:35:33;7.25;;;6.03;;
54167;SDS011;68429;50.958;3.592;2023-06-19T01:38:04;7.57;;;5.65;;
54167;SDS011;68429;50.958;3.592;2023-06-19T01:40:31;3.40;;;3.10;;
54167;SDS011;68429;50.958;3.592;2023-06-19T01:42:58;2.90;;;2.67;;
54167;SDS011;68429;50.958;3.592;2023-06-19T01:45:26;4.07;;;2.85;;
54167;SDS011;68429;50.958;3.592;2023-06-19T01:47:54;3.30;;;2.45;;
54167;SDS011;68429;50.958;3.592;2023-06-19T01:50:21;3.03;;;2.30;;
54167;SDS011;68429;50.958;3.592;2023-06-19T01:52:47;2.95;;;2.13;;
54167;SDS011;68429;50.958;3.592;2023-06-19T01:55:13;1.77;;;1.63;;
54167;SDS011;68429;50.958;3.592;2023-06-19T01:57:39;1.92;;;1.80;;
54167;SDS011;68429;50.958;3.592;2023-06-19T02:00:05;2.72;;;1.98;;
54167;SDS011;68429;50.958;3.592;2023-06-19T02:02:38;3.45;;;2.30;;
54167;SDS011;68429;50.958;3.592;2023-06-19T02:05:04;2.70;;;2.50;;
54167;SDS011;68429;50.958;3.592;2023-06-19T02:07:30;2.78;;;2.58;;
54167;SDS011;68429;50.958;3.592;2023-06-19T02:09:58;5.50;;;2.92;;
54167;SDS011;68429;50.958;3.592;2023-06-19T02:12:24;4.15;;;3.33;;
54167;SDS011;68429;50.958;3.592;2023-06-19T02:14:50;5.75;;;3.60;;
54167;SDS011;68429;50.958;3.592;2023-06-19T02:17:15;4.80;;;4.10;;
54167;SDS011;68429;50.958;3.592;2023-06-19T02:19:41;7.13;;;4.22;;
54167;SDS011;68429;50.958;3.592;2023-06-19T02:22:07;5.25;;;4.60;;
54167;SDS011;68429;50.958;3.592;2023-06-19T02:24:33;5.57;;;4.65;;
54167;SDS011;68429;50.958;3.592;2023-06-19T02:26:59;7.13;;;5.00;;
54167;SDS011;68429;50.958;3.592;2023-06-19T02:29:25;6.75;;;5.13;;
54167;SDS011;68429;50.958;3.592;2023-06-19T02:31:51;8.05;;;5.65;;
54167;SDS011;68429;50.958;3.592;2023-06-19T02:34:17;7.15;;;5.88;;
54167;SDS011;68429;50.958;3.592;2023-06-19T02:36:42;9.43;;;4.90;;
54167;SDS011;68429;50.958;3.592;2023-06-19T02:39:08;5.97;;;5.07;;
54167;SDS011;68429;50.958;3.592;2023-06-19T02:41:34;7.30;;;5.68;;
54167;SDS011;68429;50.958;3.592;2023-06-19T02:44:00;9.85;;;6.20;;
54167;SDS011;68429;50.958;3.592;2023-06-19T02:46:26;8.73;;;6.25;;
54167;SDS011;68429;50.958;3.592;2023-06-19T02:48:52;8.93;;;6.82;;
54167;SDS011;68429;50.958;3.592;2023-06-19T02:51:17;10.82;;;7.97;;
54167;SDS011;68429;50.958;3.592;2023-06-19T02:53:43;11.02;;;7.28;;
54167;SDS011;68429;50.958;3.592;2023-06-19T02:56:09;8.35;;;7.55;;
54167;SDS011;68429;50.958;3.592;2023-06-19T02:58:36;8.73;;;7.78;;
54167;SDS011;68429;50.958;3.592;2023-06-19T03:01:02;10.10;;;7.82;;
54167;SDS011;68429;50.958;3.592;2023-06-19T03:03:31;10.65;;;8.40;;
54167;SDS011;68429;50.958;3.592;2023-06-19T03:06:02;10.40;;;8.80;;
54167;SDS011;68429;50.958;3.592;2023-06-19T03:08:32;11.32;;;9.65;;
54167;SDS011;68429;50.958;3.592;2023-06-19T03:11:01;10.27;;;9.30;;
54167;SDS011;68429;50.958;3.592;2023-06-19T03:14:12;11.98;;;9.60;;
54167;SDS011;68429;50.958;3.592;2023-06-19T03:16:19;11.25;;;10.05;;
54167;SDS011;68429;50.958;3.592;2023-06-19T03:18:46;19.17;;;9.88;;
54167;SDS011;68429;50.958;3.592;2023-06-19T03:21:12;13.00;;;9.10;;
54167;SDS011;68429;50.958;3.592;2023-06-19T03:23:39;13.15;;;9.77;;
54167;SDS011;68429;50.958;3.592;2023-06-19T03:26:06;11.60;;;9.80;;
54167;SDS011;68429;50.958;3.592;2023-06-19T03:28:32;13.63;;;9.45;;
54167;SDS011;68429;50.958;3.592;2023-06-19T03:30:58;10.90;;;8.93;;
54167;SDS011;68429;50.958;3.592;2023-06-19T03:33:24;13.52;;;10.80;;
54167;SDS011;68429;50.958;3.592;2023-06-19T03:35:49;16.25;;;11.77;;
54167;SDS011;68429;50.958;3.592;2023-06-19T03:38:15;13.50;;;10.65;;
54167;SDS011;68429;50.958;3.592;2023-06-19T03:40:41;14.80;;;11.15;;
54167;SDS011;68429;50.958;3.592;2023-06-19T03:43:07;15.40;;;12.02;;
54167;SDS011;68429;50.958;3.592;2023-06-19T03:45:33;15.55;;;12.25;;
54167;SDS011;68429;50.958;3.592;2023-06-19T03:47:58;16.45;;;12.68;;
54167;SDS011;68429;50.958;3.592;2023-06-19T03:50:24;18.00;;;13.07;;
54167;SDS011;68429;50.958;3.592;2023-06-19T03:52:50;17.05;;;12.65;;
54167;SDS011;68429;50.958;3.592;2023-06-19T03:55:15;20.02;;;14.20;;
54167;SDS011;68429;50.958;3.592;2023-06-19T03:57:41;22.13;;;12.98;;
54167;SDS011;68429;50.958;3.592;2023-06-19T04:00:07;17.58;;;13.90;;
54167;SDS011;68429;50.958;3.592;2023-06-19T04:02:33;17.35;;;15.20;;
54167;SDS011;68429;50.958;3.592;2023-06-19T04:04:59;19.70;;;15.20;;
54167;SDS011;68429;50.958;3.592;2023-06-19T04:07:25;19.80;;;14.82;;
54167;SDS011;68429;50.958;3.592;2023-06-19T04:09:50;21.63;;;16.38;;
54167;SDS011;68429;50.958;3.592;2023-06-19T04:12:16;20.52;;;15.65;;
54167;SDS011;68429;50.958;3.592;2023-06-19T04:14:42;20.15;;;15.25;;
54167;SDS011;68429;50.958;3.592;2023-06-19T04:17:07;24.67;;;16.48;;
54167;SDS011;68429;50.958;3.592;2023-06-19T04:19:33;22.50;;;17.25;;
54167;SDS011;68429;50.958;3.592;2023-06-19T04:21:58;22.27;;;16.08;;
54167;SDS011;68429;50.958;3.592;2023-06-19T04:24:24;24.90;;;17.27;;
54167;SDS011;68429;50.958;3.592;2023-06-19T04:26:50;18.35;;;16.38;;
54167;SDS011;68429;50.958;3.592;2023-06-19T04:29:16;20.98;;;16.77;;
54167;SDS011;68429;50.958;3.592;2023-06-19T04:31:45;19.80;;;16.40;;
54167;SDS011;68429;50.958;3.592;2023-06-19T04:34:15;20.73;;;16.42;;
54167;SDS011;68429;50.958;3.592;2023-06-19T04:36:42;22.10;;;17.73;;
54167;SDS011;68429;50.958;3.592;2023-06-19T04:39:09;26.70;;;17.35;;
54167;SDS011;68429;50.958;3.592;2023-06-19T04:41:35;20.42;;;16.52;;
54167;SDS011;68429;50.958;3.592;2023-06-19T04:44:04;22.85;;;16.73;;
54167;SDS011;68429;50.958;3.592;2023-06-19T04:46:30;20.73;;;17.52;;
54167;SDS011;68429;50.958;3.592;2023-06-19T04:48:56;19.65;;;17.45;;
54167;SDS011;68429;50.958;3.592;2023-06-19T04:51:21;27.52;;;17.77;;
54167;SDS011;68429;50.958;3.592;2023-06-19T04:53:47;25.40;;;19.08;;
54167;SDS011;68429;50.958;3.592;2023-06-19T04:56:13;26.67;;;18.88;;
54167;SDS011;68429;50.958;3.592;2023-06-19T04:58:40;22.60;;;18.73;;
54167;SDS011;68429;50.958;3.592;2023-06-19T05:01:13;23.33;;;18.35;;
54167;SDS011;68429;50.958;3.592;2023-06-19T05:03:40;23.35;;;19.25;;
54167;SDS011;68429;50.958;3.592;2023-06-19T05:06:06;24.08;;;19.15;;
54167;SDS011;68429;50.958;3.592;2023-06-19T05:08:32;23.45;;;18.17;;
54167;SDS011;68429;50.958;3.592;2023-06-19T05:10:58;23.88;;;17.00;;
54167;SDS011;68429;50.958;3.592;2023-06-19T05:13:24;20.75;;;17.73;;
54167;SDS011;68429;50.958;3.592;2023-06-19T05:15:49;24.67;;;18.27;;
54167;SDS011;68429;50.958;3.592;2023-06-19T05:18:18;24.92;;;18.65;;
54167;SDS011;68429;50.958;3.592;2023-06-19T05:20:44;22.92;;;17.20;;
54167;SDS011;68429;50.958;3.592;2023-06-19T05:23:10;24.75;;;18.73;;
54167;SDS011;68429;50.958;3.592;2023-06-19T05:25:35;25.50;;;17.77;;
54167;SDS011;68429;50.958;3.592;2023-06-19T05:28:01;23.33;;;18.25;;
54167;SDS011;68429;50.958;3.592;2023-06-19T05:30:27;28.65;;;18.25;;
54167;SDS011;68429;50.958;3.592;2023-06-19T05:32:52;25.60;;;18.75;;
54167;SDS011;68429;50.958;3.592;2023-06-19T05:35:18;30.48;;;19.70;;
54167;SDS011;68429;50.958;3.592;2023-06-19T05:37:44;22.38;;;18.20;;
54167;SDS011;68429;50.958;3.592;2023-06-19T05:40:10;24.17;;;18.52;;
54167;SDS011;68429;50.958;3.592;2023-06-19T05:42:36;25.88;;;20.50;;
54167;SDS011;68429;50.958;3.592;2023-06-19T05:45:05;23.40;;;19.20;;
54167;SDS011;68429;50.958;3.592;2023-06-19T05:47:32;25.38;;;18.33;;
54167;SDS011;68429;50.958;3.592;2023-06-19T05:49:57;19.60;;;17.50;;
54167;SDS011;68429;50.958;3.592;2023-06-19T05:52:23;20.83;;;16.88;;
54167;SDS011;68429;50.958;3.592;2023-06-19T05:54:49;25.17;;;17.33;;
54167;SDS011;68429;50.958;3.592;2023-06-19T05:57:15;20.83;;;15.52;;
54167;SDS011;68429;50.958;3.592;2023-06-19T05:59:43;21.00;;;15.48;;
54167;SDS011;68429;50.958;3.592;2023-06-19T06:02:09;19.25;;;15.95;;
54167;SDS011;68429;50.958;3.592;2023-06-19T06:04:35;20.08;;;16.15;;
54167;SDS011;68429;50.958;3.592;2023-06-19T06:07:01;23.98;;;18.23;;
54167;SDS011;68429;50.958;3.592;2023-06-19T06:09:27;19.23;;;15.80;;
54167;SDS011;68429;50.958;3.592;2023-06-19T06:11:52;20.13;;;14.73;;
54167;SDS011;68429;50.958;3.592;2023-06-19T06:14:18;17.50;;;14.30;;
54167;SDS011;68429;50.958;3.592;2023-06-19T06:16:44;15.50;;;13.93;;
54167;SDS011;68429;50.958;3.592;2023-06-19T06:19:09;19.00;;;13.70;;
54167;SDS011;68429;50.958;3.592;2023-06-19T06:21:35;19.63;;;15.00;;
54167;SDS011;68429;50.958;3.592;2023-06-19T06:24:01;19.65;;;14.80;;
54167;SDS011;68429;50.958;3.592;2023-06-19T06:26:27;19.70;;;14.27;;
54167;SDS011;68429;50.958;3.592;2023-06-19T06:28:53;21.42;;;14.00;;
54167;SDS011;68429;50.958;3.592;2023-06-19T06:31:21;17.48;;;13.88;;
54167;SDS011;68429;50.958;3.592;2023-06-19T06:33:47;18.05;;;13.40;;
54167;SDS011;68429;50.958;3.592;2023-06-19T06:36:14;15.35;;;13.70;;
54167;SDS011;68429;50.958;3.592;2023-06-19T06:38:40;22.02;;;16.67;;
54167;SDS011;68429;50.958;3.592;2023-06-19T06:41:06;27.17;;;20.90;;
54167;SDS011;68429;50.958;3.592;2023-06-19T06:43:33;25.10;;;20.75;;
54167;SDS011;68429;50.958;3.592;2023-06-19T06:45:58;24.60;;;21.00;;
54167;SDS011;68429;50.958;3.592;2023-06-19T06:48:24;24.33;;;20.13;;
54167;SDS011;68429;50.958;3.592;2023-06-19T06:50:50;25.25;;;21.10;;
54167;SDS011;68429;50.958;3.592;2023-06-19T06:53:24;26.35;;;21.73;;
54167;SDS011;68429;50.958;3.592;2023-06-19T06:55:50;26.30;;;20.83;;
54167;SDS011;68429;50.958;3.592;2023-06-19T06:58:16;26.25;;;21.08;;
54167;SDS011;68429;50.958;3.592;2023-06-19T07:00:43;25.23;;;20.50;;
54167;SDS011;68429;50.958;3.592;2023-06-19T07:03:09;24.15;;;18.65;;
54167;SDS011;68429;50.958;3.592;2023-06-19T07:05:35;20.40;;;17.45;;
54167;SDS011;68429;50.958;3.592;2023-06-19T07:08:00;21.20;;;17.58;;
54167;SDS011;68429;50.958;3.592;2023-06-19T07:10:26;21.05;;;17.38;;
54167;SDS011;68429;50.958;3.592;2023-06-19T07:12:52;19.50;;;16.27;;
54167;SDS011;68429;50.958;3.592;2023-06-19T07:15:17;20.65;;;18.45;;
54167;SDS011;68429;50.958;3.592;2023-06-19T07:17:46;17.65;;;15.60;;
54167;SDS011;68429;50.958;3.592;2023-06-19T07:20:12;24.87;;;15.57;;
54167;SDS011;68429;50.958;3.592;2023-06-19T07:22:38;22.52;;;15.73;;
54167;SDS011;68429;50.958;3.592;2023-06-19T07:25:04;22.45;;;15.80;;
54167;SDS011;68429;50.958;3.592;2023-06-19T07:27:30;18.20;;;16.13;;
54167;SDS011;68429;50.958;3.592;2023-06-19T07:29:56;18.98;;;15.15;;
54167;SDS011;68429;50.958;3.592;2023-06-19T07:32:22;19.30;;;15.30;;
54167;SDS011;68429;50.958;3.592;2023-06-19T07:34:48;15.73;;;13.95;;
54167;SDS011;68429;50.958;3.592;2023-06-19T07:37:14;20.98;;;14.00;;
54167;SDS011;68429;50.958;3.592;2023-06-19T07:39:46;18.45;;;13.90;;
54167;SDS011;68429;50.958;3.592;2023-06-19T07:42:13;17.45;;;12.05;;
54167;SDS011;68429;50.958;3.592;2023-06-19T07:44:39;20.85;;;14.38;;
54167;SDS011;68429;50.958;3.592;2023-06-19T07:47:05;16.23;;;13.30;;
54167;SDS011;68429;50.958;3.592;2023-06-19T07:49:32;16.33;;;12.02;;
54167;SDS011;68429;50.958;3.592;2023-06-19T07:51:57;16.17;;;12.23;;
54167;SDS011;68429;50.958;3.592;2023-06-19T07:54:23;14.52;;;12.20;;
54167;SDS011;68429;50.958;3.592;2023-06-19T07:56:49;19.30;;;13.82;;
54167;SDS011;68429;50.958;3.592;2023-06-19T07:59:14;16.90;;;12.07;;
54167;SDS011;68429;50.958;3.592;2023-06-19T08:01:41;15.02;;;11.52;;
54167;SDS011;68429;50.958;3.592;2023-06-19T08:04:07;15.50;;;11.93;;
54167;SDS011;68429;50.958;3.592;2023-06-19T08:06:33;21.05;;;10.45;;
54167;SDS011;68429;50.958;3.592;2023-06-19T08:08:58;13.80;;;10.23;;
54167;SDS011;68429;50.958;3.592;2023-06-19T08:11:24;12.93;;;10.68;;
54167;SDS011;68429;50.958;3.592;2023-06-19T08:13:50;16.45;;;10.73;;
54167;SDS011;68429;50.958;3.592;2023-06-19T08:16:15;12.85;;;11.57;;
54167;SDS011;68429;50.958;3.592;2023-06-19T08:18:41;19.80;;;11.07;;
54167;SDS011;68429;50.958;3.592;2023-06-19T08:21:07;16.50;;;11.27;;
54167;SDS011;68429;50.958;3.592;2023-06-19T08:23:33;15.85;;;10.30;;
54167;SDS011;68429;50.958;3.592;2023-06-19T08:25:58;17.67;;;11.93;;
54167;SDS011;68429;50.958;3.592;2023-06-19T08:28:24;17.73;;;12.32;;
54167;SDS011;68429;50.958;3.592;2023-06-19T08:30:50;15.10;;;11.48;;
54167;SDS011;68429;50.958;3.592;2023-06-19T08:33:15;15.82;;;11.73;;
54167;SDS011;68429;50.958;3.592;2023-06-19T08:35:41;16.73;;;11.45;;
54167;SDS011;68429;50.958;3.592;2023-06-19T08:38:07;12.05;;;10.73;;
54167;SDS011;68429;50.958;3.592;2023-06-19T08:40:33;12.82;;;10.75;;
54167;SDS011;68429;50.958;3.592;2023-06-19T08:42:58;14.35;;;9.73;;
54167;SDS011;68429;50.958;3.592;2023-06-19T08:45:25;14.80;;;8.40;;
54167;SDS011;68429;50.958;3.592;2023-06-19T08:47:59;15.68;;;10.25;;
54167;SDS011;68429;50.958;3.592;2023-06-19T08:50:29;13.02;;;9.93;;
54167;SDS011;68429;50.958;3.592;2023-06-19T08:52:55;16.30;;;9.95;;
54167;SDS011;68429;50.958;3.592;2023-06-19T08:55:21;14.00;;;10.23;;
54167;SDS011;68429;50.958;3.592;2023-06-19T08:57:48;16.48;;;11.45;;
54167;SDS011;68429;50.958;3.592;2023-06-19T09:00:28;12.30;;;9.63;;
54167;SDS011;68429;50.958;3.592;2023-06-19T09:03:01;11.27;;;8.38;;
54167;SDS011;68429;50.958;3.592;2023-06-19T09:05:28;16.73;;;9.23;;
54167;SDS011;68429;50.958;3.592;2023-06-19T09:08:03;13.32;;;9.15;;
54167;SDS011;68429;50.958;3.592;2023-06-19T09:10:28;12.98;;;8.93;;
54167;SDS011;68429;50.958;3.592;2023-06-19T09:12:56;17.48;;;9.60;;
54167;SDS011;68429;50.958;3.592;2023-06-19T09:15:30;12.93;;;9.02;;
54167;SDS011;68429;50.958;3.592;2023-06-19T09:18:07;14.95;;;9.27;;
54167;SDS011;68429;50.958;3.592;2023-06-19T09:20:38;16.13;;;8.23;;
54167;SDS011;68429;50.958;3.592;2023-06-19T09:23:13;13.77;;;8.27;;
54167;SDS011;68429;50.958;3.592;2023-06-19T09:25:46;11.15;;;8.50;;
54167;SDS011;68429;50.958;3.592;2023-06-19T09:28:19;18.65;;;9.02;;
54167;SDS011;68429;50.958;3.592;2023-06-19T09:30:56;11.32;;;9.25;;
54167;SDS011;68429;50.958;3.592;2023-06-19T09:33:27;11.80;;;9.50;;
54167;SDS011;68429;50.958;3.592;2023-06-19T09:35:57;12.85;;;9.10;;
54167;SDS011;68429;50.958;3.592;2023-06-19T09:38:24;12.32;;;9.05;;
54167;SDS011;68429;50.958;3.592;2023-06-19T09:40:51;16.00;;;8.10;;
54167;SDS011;68429;50.958;3.592;2023-06-19T09:43:40;15.13;;;9.75;;
54167;SDS011;68429;50.958;3.592;2023-06-19T09:46:09;10.10;;;8.63;;
54167;SDS011;68429;50.958;3.592;2023-06-19T09:48:38;13.48;;;9.07;;
54167;SDS011;68429;50.958;3.592;2023-06-19T09:51:09;11.30;;;10.20;;
54167;SDS011;68429;50.958;3.592;2023-06-19T09:53:46;11.85;;;9.05;;
54167;SDS011;68429;50.958;3.592;2023-06-19T09:56:13;12.15;;;9.32;;
54167;SDS011;68429;50.958;3.592;2023-06-19T09:58:41;10.13;;;8.02;;
54167;SDS011;68429;50.958;3.592;2023-06-19T10:01:08;11.57;;;8.15;;
54167;SDS011;68429;50.958;3.592;2023-06-19T10:03:35;15.20;;;8.88;;
54167;SDS011;68429;50.958;3.592;2023-06-19T10:06:02;13.15;;;8.80;;
54167;SDS011;68429;50.958;3.592;2023-06-19T10:08:38;13.50;;;8.93;;
54167;SDS011;68429;50.958;3.592;2023-06-19T10:11:05;14.57;;;8.48;;
54167;SDS011;68429;50.958;3.592;2023-06-19T10:13:32;11.43;;;8.00;;
54167;SDS011;68429;50.958;3.592;2023-06-19T10:15:59;12.52;;;7.78;;
54167;SDS011;68429;50.958;3.592;2023-06-19T10:18:25;9.77;;;6.95;;
54167;SDS011;68429;50.958;3.592;2023-06-19T10:20:51;18.00;;;8.40;;
54167;SDS011;68429;50.958;3.592;2023-06-19T10:23:22;9.48;;;7.57;;
54167;SDS011;68429;50.958;3.592;2023-06-19T10:25:57;10.07;;;6.78;;
54167;SDS011;68429;50.958;3.592;2023-06-19T10:28:28;9.30;;;6.65;;
54167;SDS011;68429;50.958;3.592;2023-06-19T10:31:05;13.05;;;7.18;;
54167;SDS011;68429;50.958;3.592;2023-06-19T10:33:34;13.93;;;7.70;;
54167;SDS011;68429;50.958;3.592;2023-06-19T10:36:14;14.30;;;8.95;;
54167;SDS011;68429;50.958;3.592;2023-06-19T10:41:14;13.57;;;7.45;;
54167;SDS011;68429;50.958;3.592;2023-06-19T10:43:40;15.27;;;7.95;;
54167;SDS011;68429;50.958;3.592;2023-06-19T10:46:06;15.43;;;8.02;;
54167;SDS011;68429;50.958;3.592;2023-06-19T10:48:32;15.93;;;7.68;;
54167;SDS011;68429;50.958;3.592;2023-06-19T10:50:57;8.30;;;6.63;;
54167;SDS011;68429;50.958;3.592;2023-06-19T10:53:29;10.45;;;7.50;;
54167;SDS011;68429;50.958;3.592;2023-06-19T10:56:00;9.60;;;6.68;;
54167;SDS011;68429;50.958;3.592;2023-06-19T10:58:27;9.00;;;6.18;;
54167;SDS011;68429;50.958;3.592;2023-06-19T11:00:53;10.15;;;6.57;;
54167;SDS011;68429;50.958;3.592;2023-06-19T11:03:20;8.75;;;6.80;;
54167;SDS011;68429;50.958;3.592;2023-06-19T11:05:46;11.02;;;6.85;;
54167;SDS011;68429;50.958;3.592;2023-06-19T11:08:19;9.20;;;5.95;;
54167;SDS011;68429;50.958;3.592;2023-06-19T11:10:46;8.75;;;6.72;;
54167;SDS011;68429;50.958;3.592;2023-06-19T11:13:14;8.98;;;6.07;;
54167;SDS011;68429;50.958;3.592;2023-06-19T11:15:43;13.00;;;6.10;;
54167;SDS011;68429;50.958;3.592;2023-06-19T11:18:10;12.27;;;6.53;;
54167;SDS011;68429;50.958;3.592;2023-06-19T11:20:43;8.32;;;6.47;;
54167;SDS011;68429;50.958;3.592;2023-06-19T11:23:14;7.20;;;5.73;;
54167;SDS011;68429;50.958;3.592;2023-06-19T11:25:41;9.68;;;5.43;;
54167;SDS011;68429;50.958;3.592;2023-06-19T11:28:11;10.20;;;6.35;;
54167;SDS011;68429;50.958;3.592;2023-06-19T11:30:38;7.95;;;6.35;;
54167;SDS011;68429;50.958;3.592;2023-06-19T11:33:14;9.18;;;5.60;;
54167;SDS011;68429;50.958;3.592;2023-06-19T11:35:47;9.93;;;5.55;;
54167;SDS011;68429;50.958;3.592;2023-06-19T11:38:21;10.52;;;5.55;;
54167;SDS011;68429;50.958;3.592;2023-06-19T11:40:48;7.68;;;5.25;;
54167;SDS011;68429;50.958;3.592;2023-06-19T11:43:27;6.65;;;5.20;;
54167;SDS011;68429;50.958;3.592;2023-06-19T11:46:04;7.50;;;4.78;;
54167;SDS011;68429;50.958;3.592;2023-06-19T11:48:30;6.40;;;5.35;;
54167;SDS011;68429;50.958;3.592;2023-06-19T11:50:57;7.00;;;5.80;;
54167;SDS011;68429;50.958;3.592;2023-06-19T11:53:23;6.03;;;5.40;;
54167;SDS011;68429;50.958;3.592;2023-06-19T11:55:50;8.80;;;5.57;;
54167;SDS011;68429;50.958;3.592;2023-06-19T11:58:16;7.07;;;4.93;;
54167;SDS011;68429;50.958;3.592;2023-06-19T12:00:44;5.57;;;5.03;;
54167;SDS011;68429;50.958;3.592;2023-06-19T12:03:10;7.32;;;5.57;;
54167;SDS011;68429;50.958;3.592;2023-06-19T12:05:36;8.93;;;5.18;;
54167;SDS011;68429;50.958;3.592;2023-06-19T12:08:03;7.93;;;4.68;;
54167;SDS011;68429;50.958;3.592;2023-06-19T12:10:29;5.28;;;4.72;;
54167;SDS011;68429;50.958;3.592;2023-06-19T12:12:55;6.35;;;4.38;;
54167;SDS011;68429;50.958;3.592;2023-06-19T12:15:21;6.03;;;4.20;;
54167;SDS011;68429;50.958;3.592;2023-06-19T12:17:47;6.05;;;5.30;;
54167;SDS011;68429;50.958;3.592;2023-06-19T12:20:13;6.00;;;4.35;;
54167;SDS011;68429;50.958;3.592;2023-06-19T12:22:39;6.43;;;4.78;;
54167;SDS011;68429;50.958;3.592;2023-06-19T12:25:05;4.85;;;4.20;;
54167;SDS011;68429;50.958;3.592;2023-06-19T12:27:31;9.40;;;4.25;;
54167;SDS011;68429;50.958;3.592;2023-06-19T12:29:57;5.38;;;3.83;;
54167;SDS011;68429;50.958;3.592;2023-06-19T12:32:23;7.53;;;4.22;;
54167;SDS011;68429;50.958;3.592;2023-06-19T12:34:49;5.72;;;4.45;;
54167;SDS011;68429;50.958;3.592;2023-06-19T12:37:19;7.35;;;4.38;;
54167;SDS011;68429;50.958;3.592;2023-06-19T12:39:45;5.65;;;4.22;;
54167;SDS011;68429;50.958;3.592;2023-06-19T12:42:11;5.93;;;3.72;;
54167;SDS011;68429;50.958;3.592;2023-06-19T12:44:38;9.32;;;4.43;;
54167;SDS011;68429;50.958;3.592;2023-06-19T12:47:04;4.80;;;3.95;;
54167;SDS011;68429;50.958;3.592;2023-06-19T12:49:30;7.28;;;4.55;;
54167;SDS011;68429;50.958;3.592;2023-06-19T12:51:56;6.53;;;4.57;;
54167;SDS011;68429;50.958;3.592;2023-06-19T12:54:22;7.07;;;4.10;;
54167;SDS011;68429;50.958;3.592;2023-06-19T12:56:48;5.43;;;4.60;;
54167;SDS011;68429;50.958;3.592;2023-06-19T12:59:15;11.50;;;3.92;;
54167;SDS011;68429;50.958;3.592;2023-06-19T13:01:41;8.00;;;4.10;;
54167;SDS011;68429;50.958;3.592;2023-06-19T13:04:07;4.95;;;3.85;;
54167;SDS011;68429;50.958;3.592;2023-06-19T13:06:33;4.65;;;3.60;;
54167;SDS011;68429;50.958;3.592;2023-06-19T13:09:00;5.23;;;3.90;;
54167;SDS011;68429;50.958;3.592;2023-06-19T13:11:27;6.70;;;3.95;;
54167;SDS011;68429;50.958;3.592;2023-06-19T13:13:52;6.93;;;3.95;;
54167;SDS011;68429;50.958;3.592;2023-06-19T13:16:18;6.60;;;4.05;;
54167;SDS011;68429;50.958;3.592;2023-06-19T13:18:44;4.55;;;3.88;;
54167;SDS011;68429;50.958;3.592;2023-06-19T13:21:10;8.80;;;3.97;;
54167;SDS011;68429;50.958;3.592;2023-06-19T13:23:36;6.00;;;3.85;;
54167;SDS011;68429;50.958;3.592;2023-06-19T13:26:02;5.28;;;3.72;;
54167;SDS011;68429;50.958;3.592;2023-06-19T13:28:27;8.45;;;3.80;;
54167;SDS011;68429;50.958;3.592;2023-06-19T13:30:53;7.20;;;4.00;;
54167;SDS011;68429;50.958;3.592;2023-06-19T13:33:19;7.20;;;4.47;;
54167;SDS011;68429;50.958;3.592;2023-06-19T13:35:44;5.93;;;3.70;;
54167;SDS011;68429;50.958;3.592;2023-06-19T13:38:10;7.20;;;4.07;;
54167;SDS011;68429;50.958;3.592;2023-06-19T13:40:36;5.82;;;3.83;;
54167;SDS011;68429;50.958;3.592;2023-06-19T13:43:02;5.75;;;3.95;;
54167;SDS011;68429;50.958;3.592;2023-06-19T13:45:28;6.95;;;3.97;;
54167;SDS011;68429;50.958;3.592;2023-06-19T13:47:55;8.90;;;4.70;;
54167;SDS011;68429;50.958;3.592;2023-06-19T13:50:22;5.47;;;4.55;;
54167;SDS011;68429;50.958;3.592;2023-06-19T13:52:48;5.18;;;4.10;;
54167;SDS011;68429;50.958;3.592;2023-06-19T13:55:14;6.78;;;3.60;;
54167;SDS011;68429;50.958;3.592;2023-06-19T13:57:41;7.55;;;4.10;;
54167;SDS011;68429;50.958;3.592;2023-06-19T14:00:07;5.40;;;4.05;;
54167;SDS011;68429;50.958;3.592;2023-06-19T14:02:35;7.97;;;4.68;;
54167;SDS011;68429;50.958;3.592;2023-06-19T14:05:02;5.18;;;4.15;;
54167;SDS011;68429;50.958;3.592;2023-06-19T14:07:29;6.53;;;4.80;;
54167;SDS011;68429;50.958;3.592;2023-06-19T14:09:55;6.05;;;4.18;;
54167;SDS011;68429;50.958;3.592;2023-06-19T14:12:20;5.25;;;4.18;;
54167;SDS011;68429;50.958;3.592;2023-06-19T14:14:46;7.07;;;4.38;;
54167;SDS011;68429;50.958;3.592;2023-06-19T14:17:12;5.18;;;4.10;;
54167;SDS011;68429;50.958;3.592;2023-06-19T14:19:38;7.03;;;4.07;;
54167;SDS011;68429;50.958;3.592;2023-06-19T14:22:04;4.93;;;4.30;;
54167;SDS011;68429;50.958;3.592;2023-06-19T14:24:30;6.28;;;4.45;;
54167;SDS011;68429;50.958;3.592;2023-06-19T14:26:55;5.75;;;4.00;;
54167;SDS011;68429;50.958;3.592;2023-06-19T14:29:21;5.85;;;3.97;;
54167;SDS011;68429;50.958;3.592;2023-06-19T14:31:47;6.13;;;3.80;;
54167;SDS011;68429;50.958;3.592;2023-06-19T14:34:12;7.07;;;4.63;;
54167;SDS011;68429;50.958;3.592;2023-06-19T14:36:38;4.75;;;3.83;;
54167;SDS011;68429;50.958;3.592;2023-06-19T14:39:04;6.68;;;4.32;;